sensor_id;sensor_type;location;lat;lon;timestamp;temperature;humidity
67186;HTU21D;54116;53.518;49.398;2023-08-20T00:01:32;-1.26;118.99
67186;HTU21D;54116;53.518;49.398;2023-08-20T00:03:59;-1.24;118.99
67186;HTU21D;54116;53.518;49.398;2023-08-20T00:06:25;-1.29;118.99
67186;HTU21D;54116;53.518;49.398;2023-08-20T00:08:54;-1.29;118.99
67186;HTU21D;54116;53.518;49.398;2023-08-20T00:11:20;-1.28;118.99
67186;HTU21D;54116;53.518;49.398;2023-08-20T00:13:46;-1.32;118.99
67186;HTU21D;54116;53.518;49.398;2023-08-20T00:16:12;-1.40;118.99
67186;HTU21D;54116;53.518;49.398;2023-08-20T00:18:45;-1.47;118.99
67186;HTU21D;54116;53.518;49.398;2023-08-20T00:21:11;-1.48;118.99
67186;HTU21D;54116;53.518;49.398;2023-08-20T00:23:43;-1.53;118.99
67186;HTU21D;54116;53.518;49.398;2023-08-20T00:26:09;-1.60;118.99
67186;HTU21D;54116;53.518;49.398;2023-08-20T00:28:36;-1.58;118.99
67186;HTU21D;54116;53.518;49.398;2023-08-20T00:31:04;-1.62;118.99
67186;HTU21D;54116;53.518;49.398;2023-08-20T00:33:31;-1.71;118.99
67186;HTU21D;54116;53.518;49.398;2023-08-20T00:35:57;-1.65;118.99
67186;HTU21D;54116;53.518;49.398;2023-08-20T00:38:26;-1.67;118.99
67186;HTU21D;54116;53.518;49.398;2023-08-20T00:40:52;-1.78;118.99
67186;HTU21D;54116;53.518;49.398;2023-08-20T00:43:18;-1.72;118.99
67186;HTU21D;54116;53.518;49.398;2023-08-20T00:45:47;-1.72;118.99
67186;HTU21D;54116;53.518;49.398;2023-08-20T00:48:15;-1.88;118.99
67186;HTU21D;54116;53.518;49.398;2023-08-20T00:50:41;-1.89;118.99
67186;HTU21D;54116;53.518;49.398;2023-08-20T00:53:10;-1.75;118.99
67186;HTU21D;54116;53.518;49.398;2023-08-20T00:55:41;-1.75;118.99
67186;HTU21D;54116;53.518;49.398;2023-08-20T00:58:08;-1.77;118.99
67186;HTU21D;54116;53.518;49.398;2023-08-20T01:00:34;-1.92;118.99
67186;HTU21D;54116;53.518;49.398;2023-08-20T01:03:00;-1.97;118.99
67186;HTU21D;54116;53.518;49.398;2023-08-20T01:05:31;-1.89;118.99
67186;HTU21D;54116;53.518;49.398;2023-08-20T01:08:24;-1.99;118.99
67186;HTU21D;54116;53.518;49.398;2023-08-20T01:13:54;-2.07;118.99
67186;HTU21D;54116;53.518;49.398;2023-08-20T01:16:20;-2.20;118.99
67186;HTU21D;54116;53.518;49.398;2023-08-20T01:18:49;-2.21;118.99
67186;HTU21D;54116;53.518;49.398;2023-08-20T01:21:29;-2.13;118.99
67186;HTU21D;54116;53.518;49.398;2023-08-20T01:29:39;-2.01;118.99
67186;HTU21D;54116;53.518;49.398;2023-08-20T01:32:05;-2.09;118.99
67186;HTU21D;54116;53.518;49.398;2023-08-20T01:34:32;-2.15;118.99
67186;HTU21D;54116;53.518;49.398;2023-08-20T01:37:01;-2.22;118.99
67186;HTU21D;54116;53.518;49.398;2023-08-20T01:39:27;-2.19;118.99
67186;HTU21D;54116;53.518;49.398;2023-08-20T01:41:53;-2.16;118.99
67186;HTU21D;54116;53.518;49.398;2023-08-20T01:44:19;-2.17;118.99
67186;HTU21D;54116;53.518;49.398;2023-08-20T01:46:45;-2.13;118.99
67186;HTU21D;54116;53.518;49.398;2023-08-20T01:49:13;-2.12;118.99
67186;HTU21D;54116;53.518;49.398;2023-08-20T01:51:39;-2.16;118.99
67186;HTU21D;54116;53.518;49.398;2023-08-20T01:54:06;-2.13;118.99
67186;HTU21D;54116;53.518;49.398;2023-08-20T01:56:32;-2.16;118.99
67186;HTU21D;54116;53.518;49.398;2023-08-20T01:59:01;-2.18;118.99
67186;HTU21D;54116;53.518;49.398;2023-08-20T02:01:27;-2.16;118.99
67186;HTU21D;54116;53.518;49.398;2023-08-20T02:04:00;-2.16;118.99
67186;HTU21D;54116;53.518;49.398;2023-08-20T02:06:32;-2.13;118.99
67186;HTU21D;54116;53.518;49.398;2023-08-20T02:08:58;-2.09;118.99
67186;HTU21D;54116;53.518;49.398;2023-08-20T02:11:24;-2.06;118.99
67186;HTU21D;54116;53.518;49.398;2023-08-20T02:13:50;-2.09;118.99
67186;HTU21D;54116;53.518;49.398;2023-08-20T02:16:16;-1.98;118.99
67186;HTU21D;54116;53.518;49.398;2023-08-20T02:18:42;-2.01;118.99
67186;HTU21D;54116;53.518;49.398;2023-08-20T02:21:11;-2.03;118.99
67186;HTU21D;54116;53.518;49.398;2023-08-20T02:23:37;-1.97;118.99
67186;HTU21D;54116;53.518;49.398;2023-08-20T02:26:03;-1.92;118.99
67186;HTU21D;54116;53.518;49.398;2023-08-20T02:28:32;-1.91;118.99
67186;HTU21D;54116;53.518;49.398;2023-08-20T02:30:58;-1.91;118.99
67186;HTU21D;54116;53.518;49.398;2023-08-20T02:33:29;-1.87;118.99
67186;HTU21D;54116;53.518;49.398;2023-08-20T02:35:55;-1.99;118.99
67186;HTU21D;54116;53.518;49.398;2023-08-20T02:38:21;-1.86;118.99
67186;HTU21D;54116;53.518;49.398;2023-08-20T02:40:47;-1.75;118.99
67186;HTU21D;54116;53.518;49.398;2023-08-20T02:43:16;-1.62;118.99
67186;HTU21D;54116;53.518;49.398;2023-08-20T02:45:44;-1.50;118.99
67186;HTU21D;54116;53.518;49.398;2023-08-20T02:48:14;-1.40;118.99
67186;HTU21D;54116;53.518;49.398;2023-08-20T02:50:40;-1.41;118.99
67186;HTU21D;54116;53.518;49.398;2023-08-20T02:53:09;-1.39;118.99
67186;HTU21D;54116;53.518;49.398;2023-08-20T02:55:35;-1.41;118.99
67186;HTU21D;54116;53.518;49.398;2023-08-20T02:58:01;-1.46;118.99
67186;HTU21D;54116;53.518;49.398;2023-08-20T03:00:30;-1.52;118.99
67186;HTU21D;54116;53.518;49.398;2023-08-20T03:02:56;-1.59;118.99
67186;HTU21D;54116;53.518;49.398;2023-08-20T03:05:22;-1.56;118.99
67186;HTU21D;54116;53.518;49.398;2023-08-20T03:07:51;-1.52;118.99
67186;HTU21D;54116;53.518;49.398;2023-08-20T03:10:17;-1.56;118.99
67186;HTU21D;54116;53.518;49.398;2023-08-20T03:12:43;-1.21;118.99
67186;HTU21D;54116;53.518;49.398;2023-08-20T03:15:09;-1.11;118.99
67186;HTU21D;54116;53.518;49.398;2023-08-20T03:17:38;-1.14;118.99
67186;HTU21D;54116;53.518;49.398;2023-08-20T03:20:05;-1.31;118.99
67186;HTU21D;54116;53.518;49.398;2023-08-20T03:22:32;-1.31;118.99
67186;HTU21D;54116;53.518;49.398;2023-08-20T03:24:59;-1.32;118.99
67186;HTU21D;54116;53.518;49.398;2023-08-20T03:27:25;-1.27;118.99
67186;HTU21D;54116;53.518;49.398;2023-08-20T03:29:52;-1.09;118.99
67186;HTU21D;54116;53.518;49.398;2023-08-20T03:32:24;-1.16;118.99
67186;HTU21D;54116;53.518;49.398;2023-08-20T03:34:53;-1.08;118.99
67186;HTU21D;54116;53.518;49.398;2023-08-20T03:37:22;-0.98;118.99
67186;HTU21D;54116;53.518;49.398;2023-08-20T03:39:48;-0.87;118.99
67186;HTU21D;54116;53.518;49.398;2023-08-20T03:42:20;-0.62;118.99
67186;HTU21D;54116;53.518;49.398;2023-08-20T03:44:48;-0.56;118.99
67186;HTU21D;54116;53.518;49.398;2023-08-20T03:47:15;-0.64;118.99
67186;HTU21D;54116;53.518;49.398;2023-08-20T03:49:41;-0.67;118.99
67186;HTU21D;54116;53.518;49.398;2023-08-20T03:52:10;-0.59;118.99
67186;HTU21D;54116;53.518;49.398;2023-08-20T03:54:39;-0.37;118.99
67186;HTU21D;54116;53.518;49.398;2023-08-20T03:57:05;-0.35;118.99
67186;HTU21D;54116;53.518;49.398;2023-08-20T03:59:31;-0.34;118.99
67186;HTU21D;54116;53.518;49.398;2023-08-20T04:01:57;-0.35;118.99
67186;HTU21D;54116;53.518;49.398;2023-08-20T04:04:23;-0.29;118.99
67186;HTU21D;54116;53.518;49.398;2023-08-20T04:06:52;-0.26;118.99
67186;HTU21D;54116;53.518;49.398;2023-08-20T04:09:21;-0.11;118.99
67186;HTU21D;54116;53.518;49.398;2023-08-20T04:11:47;0.13;118.99
67186;HTU21D;54116;53.518;49.398;2023-08-20T04:14:19;0.47;118.99
67186;HTU21D;54116;53.518;49.398;2023-08-20T04:16:46;1.61;118.99
67186;HTU21D;54116;53.518;49.398;2023-08-20T04:19:12;2.81;118.99
67186;HTU21D;54116;53.518;49.398;2023-08-20T04:21:43;3.43;118.99
67186;HTU21D;54116;53.518;49.398;2023-08-20T04:24:13;3.90;118.99
67186;HTU21D;54116;53.518;49.398;2023-08-20T04:26:39;4.15;118.99
67186;HTU21D;54116;53.518;49.398;2023-08-20T04:29:06;4.48;118.99
67186;HTU21D;54116;53.518;49.398;2023-08-20T04:31:32;4.77;118.99
67186;HTU21D;54116;53.518;49.398;2023-08-20T04:33:59;4.69;118.99
67186;HTU21D;54116;53.518;49.398;2023-08-20T04:36:26;4.52;118.99
67186;HTU21D;54116;53.518;49.398;2023-08-20T04:38:52;4.74;118.99
67186;HTU21D;54116;53.518;49.398;2023-08-20T04:41:19;5.00;118.99
67186;HTU21D;54116;53.518;49.398;2023-08-20T04:43:54;5.12;118.99
67186;HTU21D;54116;53.518;49.398;2023-08-20T04:46:23;5.38;118.99
67186;HTU21D;54116;53.518;49.398;2023-08-20T04:48:49;5.30;118.99
67186;HTU21D;54116;53.518;49.398;2023-08-20T04:51:18;5.32;118.99
67186;HTU21D;54116;53.518;49.398;2023-08-20T04:53:47;5.43;118.99
67186;HTU21D;54116;53.518;49.398;2023-08-20T04:56:14;5.79;118.99
67186;HTU21D;54116;53.518;49.398;2023-08-20T04:58:41;5.37;118.99
67186;HTU21D;54116;53.518;49.398;2023-08-20T05:01:07;5.26;118.99
67186;HTU21D;54116;53.518;49.398;2023-08-20T05:03:36;5.54;118.99
67186;HTU21D;54116;53.518;49.398;2023-08-20T05:06:02;4.83;118.99
67186;HTU21D;54116;53.518;49.398;2023-08-20T05:08:31;4.69;118.99
67186;HTU21D;54116;53.518;49.398;2023-08-20T05:11:00;4.61;118.99
67186;HTU21D;54116;53.518;49.398;2023-08-20T05:13:27;4.83;118.99
67186;HTU21D;54116;53.518;49.398;2023-08-20T05:15:58;4.92;118.99
67186;HTU21D;54116;53.518;49.398;2023-08-20T05:18:24;4.82;118.99
67186;HTU21D;54116;53.518;49.398;2023-08-20T05:20:53;4.86;118.99
67186;HTU21D;54116;53.518;49.398;2023-08-20T05:23:22;5.18;118.99
67186;HTU21D;54116;53.518;49.398;2023-08-20T05:25:48;4.63;118.99
67186;HTU21D;54116;53.518;49.398;2023-08-20T05:28:17;5.12;118.99
67186;HTU21D;54116;53.518;49.398;2023-08-20T05:30:43;4.73;118.99
67186;HTU21D;54116;53.518;49.398;2023-08-20T05:33:09;4.47;118.99
67186;HTU21D;54116;53.518;49.398;2023-08-20T05:35:41;4.44;118.99
67186;HTU21D;54116;53.518;49.398;2023-08-20T05:38:07;4.17;118.99
67186;HTU21D;54116;53.518;49.398;2023-08-20T05:40:35;4.07;118.99
67186;HTU21D;54116;53.518;49.398;2023-08-20T05:43:02;3.75;118.99
67186;HTU21D;54116;53.518;49.398;2023-08-20T05:45:28;4.00;118.99
67186;HTU21D;54116;53.518;49.398;2023-08-20T05:47:54;4.07;118.99
67186;HTU21D;54116;53.518;49.398;2023-08-20T05:50:24;4.02;118.99
67186;HTU21D;54116;53.518;49.398;2023-08-20T05:52:56;4.19;118.99
67186;HTU21D;54116;53.518;49.398;2023-08-20T05:55:25;4.02;118.99
67186;HTU21D;54116;53.518;49.398;2023-08-20T05:57:51;3.93;118.99
67186;HTU21D;54116;53.518;49.398;2023-08-20T06:00:17;3.85;118.99
67186;HTU21D;54116;53.518;49.398;2023-08-20T06:02:46;3.93;118.99
67186;HTU21D;54116;53.518;49.398;2023-08-20T06:05:15;4.18;118.99
67186;HTU21D;54116;53.518;49.398;2023-08-20T06:07:46;4.29;118.99
67186;HTU21D;54116;53.518;49.398;2023-08-20T06:10:12;4.07;118.99
67186;HTU21D;54116;53.518;49.398;2023-08-20T06:12:38;3.98;118.99
67186;HTU21D;54116;53.518;49.398;2023-08-20T06:15:05;4.12;118.99
67186;HTU21D;54116;53.518;49.398;2023-08-20T06:17:35;4.06;118.99
67186;HTU21D;54116;53.518;49.398;2023-08-20T06:20:01;3.79;118.99
67186;HTU21D;54116;53.518;49.398;2023-08-20T06:22:32;3.74;118.99
67186;HTU21D;54116;53.518;49.398;2023-08-20T06:25:01;3.68;118.99
67186;HTU21D;54116;53.518;49.398;2023-08-20T06:27:29;3.93;118.99
67186;HTU21D;54116;53.518;49.398;2023-08-20T06:29:55;3.99;118.99
67186;HTU21D;54116;53.518;49.398;2023-08-20T06:32:21;4.14;118.99
67186;HTU21D;54116;53.518;49.398;2023-08-20T06:34:47;3.82;118.99
67186;HTU21D;54116;53.518;49.398;2023-08-20T06:37:13;3.86;118.99
67186;HTU21D;54116;53.518;49.398;2023-08-20T06:39:39;3.90;118.99
67186;HTU21D;54116;53.518;49.398;2023-08-20T06:42:06;3.86;118.99
67186;HTU21D;54116;53.518;49.398;2023-08-20T06:44:32;3.70;118.99
67186;HTU21D;54116;53.518;49.398;2023-08-20T06:46:59;3.69;118.99
67186;HTU21D;54116;53.518;49.398;2023-08-20T06:49:28;3.45;118.99
67186;HTU21D;54116;53.518;49.398;2023-08-20T06:51:57;3.45;118.99
67186;HTU21D;54116;53.518;49.398;2023-08-20T06:54:23;3.44;118.99
67186;HTU21D;54116;53.518;49.398;2023-08-20T06:56:50;3.15;118.99
67186;HTU21D;54116;53.518;49.398;2023-08-20T06:59:17;2.94;118.99
67186;HTU21D;54116;53.518;49.398;2023-08-20T07:01:48;2.83;118.99
67186;HTU21D;54116;53.518;49.398;2023-08-20T07:04:15;2.75;118.99
67186;HTU21D;54116;53.518;49.398;2023-08-20T07:06:42;2.58;118.99
67186;HTU21D;54116;53.518;49.398;2023-08-20T07:09:11;2.56;118.99
67186;HTU21D;54116;53.518;49.398;2023-08-20T07:11:38;2.64;118.99
67186;HTU21D;54116;53.518;49.398;2023-08-20T07:14:05;2.70;118.99
67186;HTU21D;54116;53.518;49.398;2023-08-20T07:16:31;2.67;118.99
67186;HTU21D;54116;53.518;49.398;2023-08-20T07:19:01;2.60;118.99
67186;HTU21D;54116;53.518;49.398;2023-08-20T07:21:27;2.71;118.99
67186;HTU21D;54116;53.518;49.398;2023-08-20T07:23:53;2.54;118.99
67186;HTU21D;54116;53.518;49.398;2023-08-20T07:26:20;2.69;118.99
67186;HTU21D;54116;53.518;49.398;2023-08-20T07:28:46;2.89;118.99
67186;HTU21D;54116;53.518;49.398;2023-08-20T07:31:31;2.66;118.99
67186;HTU21D;54116;53.518;49.398;2023-08-20T07:33:59;2.51;118.99
67186;HTU21D;54116;53.518;49.398;2023-08-20T07:36:25;2.46;118.99
67186;HTU21D;54116;53.518;49.398;2023-08-20T07:38:54;2.75;118.99
67186;HTU21D;54116;53.518;49.398;2023-08-20T07:41:23;2.57;118.99
67186;HTU21D;54116;53.518;49.398;2023-08-20T07:43:49;2.79;118.99
67186;HTU21D;54116;53.518;49.398;2023-08-20T07:46:16;2.74;118.99
67186;HTU21D;54116;53.518;49.398;2023-08-20T07:48:42;2.69;118.99
67186;HTU21D;54116;53.518;49.398;2023-08-20T07:51:09;2.60;118.99
67186;HTU21D;54116;53.518;49.398;2023-08-20T07:53:35;2.51;118.99
67186;HTU21D;54116;53.518;49.398;2023-08-20T07:56:02;2.72;118.99
67186;HTU21D;54116;53.518;49.398;2023-08-20T07:58:28;2.84;118.99
67186;HTU21D;54116;53.518;49.398;2023-08-20T08:00:58;2.87;118.99
67186;HTU21D;54116;53.518;49.398;2023-08-20T08:03:25;2.71;118.99
67186;HTU21D;54116;53.518;49.398;2023-08-20T08:06:01;2.71;118.99
67186;HTU21D;54116;53.518;49.398;2023-08-20T08:08:27;2.83;118.99
67186;HTU21D;54116;53.518;49.398;2023-08-20T08:10:56;2.81;118.99
67186;HTU21D;54116;53.518;49.398;2023-08-20T08:13:28;2.74;118.99
67186;HTU21D;54116;53.518;49.398;2023-08-20T08:15:57;2.78;118.99
67186;HTU21D;54116;53.518;49.398;2023-08-20T08:18:23;2.83;118.99
67186;HTU21D;54116;53.518;49.398;2023-08-20T08:20:52;2.88;118.99
67186;HTU21D;54116;53.518;49.398;2023-08-20T08:23:23;3.01;118.99
67186;HTU21D;54116;53.518;49.398;2023-08-20T08:25:55;3.10;118.99
67186;HTU21D;54116;53.518;49.398;2023-08-20T08:28:24;2.98;118.99
67186;HTU21D;54116;53.518;49.398;2023-08-20T08:30:53;2.86;118.99
67186;HTU21D;54116;53.518;49.398;2023-08-20T08:33:19;2.85;118.99
67186;HTU21D;54116;53.518;49.398;2023-08-20T08:35:51;2.81;118.99
67186;HTU21D;54116;53.518;49.398;2023-08-20T08:38:20;2.84;118.99
67186;HTU21D;54116;53.518;49.398;2023-08-20T08:40:49;2.83;118.99
67186;HTU21D;54116;53.518;49.398;2023-08-20T08:43:16;2.79;118.99
67186;HTU21D;54116;53.518;49.398;2023-08-20T08:45:47;2.88;118.99
67186;HTU21D;54116;53.518;49.398;2023-08-20T08:48:15;3.12;118.99
67186;HTU21D;54116;53.518;49.398;2023-08-20T08:50:41;2.99;118.99
67186;HTU21D;54116;53.518;49.398;2023-08-20T08:53:09;2.95;118.99
67186;HTU21D;54116;53.518;49.398;2023-08-20T08:55:35;3.16;118.99
67186;HTU21D;54116;53.518;49.398;2023-08-20T08:58:03;2.91;118.99
67186;HTU21D;54116;53.518;49.398;2023-08-20T09:00:29;2.61;118.99
67186;HTU21D;54116;53.518;49.398;2023-08-20T09:02:58;2.51;118.99
67186;HTU21D;54116;53.518;49.398;2023-08-20T09:05:25;2.78;118.99
67186;HTU21D;54116;53.518;49.398;2023-08-20T09:07:57;2.84;118.99
67186;HTU21D;54116;53.518;49.398;2023-08-20T09:10:27;2.90;118.99
67186;HTU21D;54116;53.518;49.398;2023-08-20T09:12:58;2.98;118.99
67186;HTU21D;54116;53.518;49.398;2023-08-20T09:15:32;2.73;118.99
67186;HTU21D;54116;53.518;49.398;2023-08-20T09:18:04;2.73;118.99
67186;HTU21D;54116;53.518;49.398;2023-08-20T09:20:37;2.68;118.99
67186;HTU21D;54116;53.518;49.398;2023-08-20T09:23:11;2.84;118.99
67186;HTU21D;54116;53.518;49.398;2023-08-20T09:25:39;2.52;118.99
67186;HTU21D;54116;53.518;49.398;2023-08-20T09:28:06;2.45;118.99
67186;HTU21D;54116;53.518;49.398;2023-08-20T09:30:32;2.25;118.99
67186;HTU21D;54116;53.518;49.398;2023-08-20T09:33:10;2.15;118.99
67186;HTU21D;54116;53.518;49.398;2023-08-20T09:35:37;2.17;118.99
67186;HTU21D;54116;53.518;49.398;2023-08-20T09:38:04;2.51;118.99
67186;HTU21D;54116;53.518;49.398;2023-08-20T09:40:34;2.64;118.99
67186;HTU21D;54116;53.518;49.398;2023-08-20T09:43:01;2.82;118.99
67186;HTU21D;54116;53.518;49.398;2023-08-20T09:45:33;2.83;118.99
67186;HTU21D;54116;53.518;49.398;2023-08-20T09:48:06;2.93;118.99
67186;HTU21D;54116;53.518;49.398;2023-08-20T09:50:36;2.76;118.99
67186;HTU21D;54116;53.518;49.398;2023-08-20T09:53:22;2.79;118.99
67186;HTU21D;54116;53.518;49.398;2023-08-20T09:55:52;2.84;118.99
67186;HTU21D;54116;53.518;49.398;2023-08-20T09:58:25;2.94;118.99
67186;HTU21D;54116;53.518;49.398;2023-08-20T10:00:52;2.80;118.99
67186;HTU21D;54116;53.518;49.398;2023-08-20T10:03:22;2.76;118.99
67186;HTU21D;54116;53.518;49.398;2023-08-20T10:05:49;2.89;118.99
67186;HTU21D;54116;53.518;49.398;2023-08-20T10:08:18;2.88;118.99
67186;HTU21D;54116;53.518;49.398;2023-08-20T10:10:47;2.88;118.99
67186;HTU21D;54116;53.518;49.398;2023-08-20T10:13:14;2.86;118.99
67186;HTU21D;54116;53.518;49.398;2023-08-20T10:15:50;2.84;118.99
67186;HTU21D;54116;53.518;49.398;2023-08-20T10:18:19;2.55;118.99
67186;HTU21D;54116;53.518;49.398;2023-08-20T10:20:52;2.52;118.99
67186;HTU21D;54116;53.518;49.398;2023-08-20T10:23:21;2.72;118.99
67186;HTU21D;54116;53.518;49.398;2023-08-20T10:25:53;2.73;118.99
67186;HTU21D;54116;53.518;49.398;2023-08-20T10:28:25;2.67;118.99
67186;HTU21D;54116;53.518;49.398;2023-08-20T10:31:25;2.82;118.99
67186;HTU21D;54116;53.518;49.398;2023-08-20T10:33:55;2.97;118.99
67186;HTU21D;54116;53.518;49.398;2023-08-20T10:36:24;2.98;118.99
67186;HTU21D;54116;53.518;49.398;2023-08-20T10:39:05;2.81;118.99
67186;HTU21D;54116;53.518;49.398;2023-08-20T10:41:37;2.84;118.99
67186;HTU21D;54116;53.518;49.398;2023-08-20T10:44:03;2.82;118.99
67186;HTU21D;54116;53.518;49.398;2023-08-20T10:46:29;2.89;118.99
67186;HTU21D;54116;53.518;49.398;2023-08-20T10:49:03;2.87;118.99
67186;HTU21D;54116;53.518;49.398;2023-08-20T10:51:38;3.16;118.99
67186;HTU21D;54116;53.518;49.398;2023-08-20T10:54:07;2.87;118.99
67186;HTU21D;54116;53.518;49.398;2023-08-20T10:56:55;2.86;118.99
67186;HTU21D;54116;53.518;49.398;2023-08-20T10:59:26;3.13;118.99
67186;HTU21D;54116;53.518;49.398;2023-08-20T11:01:57;3.14;118.99
67186;HTU21D;54116;53.518;49.398;2023-08-20T11:04:31;3.23;118.99
67186;HTU21D;54116;53.518;49.398;2023-08-20T11:07:01;3.47;118.99
67186;HTU21D;54116;53.518;49.398;2023-08-20T11:09:33;3.35;118.99
67186;HTU21D;54116;53.518;49.398;2023-08-20T11:11:59;2.96;118.99
67186;HTU21D;54116;53.518;49.398;2023-08-20T11:14:28;2.95;118.99
67186;HTU21D;54116;53.518;49.398;2023-08-20T11:16:54;2.99;118.99
67186;HTU21D;54116;53.518;49.398;2023-08-20T11:19:22;3.15;118.99
67186;HTU21D;54116;53.518;49.398;2023-08-20T11:21:48;3.04;118.99
67186;HTU21D;54116;53.518;49.398;2023-08-20T11:24:18;2.98;118.99
67186;HTU21D;54116;53.518;49.398;2023-08-20T11:26:53;3.14;118.99
67186;HTU21D;54116;53.518;49.398;2023-08-20T11:29:21;3.14;118.99
67186;HTU21D;54116;53.518;49.398;2023-08-20T11:31:50;3.00;118.99
67186;HTU21D;54116;53.518;49.398;2023-08-20T11:34:18;2.94;118.99
67186;HTU21D;54116;53.518;49.398;2023-08-20T11:36:44;3.06;118.99
67186;HTU21D;54116;53.518;49.398;2023-08-20T11:39:11;3.29;118.99
67186;HTU21D;54116;53.518;49.398;2023-08-20T11:41:43;3.43;118.99
67186;HTU21D;54116;53.518;49.398;2023-08-20T11:44:10;3.27;118.99
67186;HTU21D;54116;53.518;49.398;2023-08-20T11:46:42;3.20;118.99
67186;HTU21D;54116;53.518;49.398;2023-08-20T11:49:10;3.17;118.99
67186;HTU21D;54116;53.518;49.398;2023-08-20T11:54:14;2.78;118.99
67186;HTU21D;54116;53.518;49.398;2023-08-20T11:56:51;2.85;118.99
67186;HTU21D;54116;53.518;49.398;2023-08-20T11:59:19;2.79;118.99
67186;HTU21D;54116;53.518;49.398;2023-08-20T12:01:57;2.93;118.99
67186;HTU21D;54116;53.518;49.398;2023-08-20T12:04:25;2.98;118.99
67186;HTU21D;54116;53.518;49.398;2023-08-20T12:09:33;3.27;118.99
67186;HTU21D;54116;53.518;49.398;2023-08-20T12:12:00;3.33;118.99
67186;HTU21D;54116;53.518;49.398;2023-08-20T12:14:32;3.34;118.99
67186;HTU21D;54116;53.518;49.398;2023-08-20T12:16:58;3.36;118.99
67186;HTU21D;54116;53.518;49.398;2023-08-20T12:19:24;3.33;118.99
67186;HTU21D;54116;53.518;49.398;2023-08-20T12:21:51;3.27;118.99
67186;HTU21D;54116;53.518;49.398;2023-08-20T12:24:18;3.17;118.99
67186;HTU21D;54116;53.518;49.398;2023-08-20T12:26:47;3.14;118.99
67186;HTU21D;54116;53.518;49.398;2023-08-20T12:29:13;3.13;118.99
67186;HTU21D;54116;53.518;49.398;2023-08-20T12:31:40;3.06;118.99
67186;HTU21D;54116;53.518;49.398;2023-08-20T12:34:06;3.11;118.99
67186;HTU21D;54116;53.518;49.398;2023-08-20T12:36:34;3.10;118.99
67186;HTU21D;54116;53.518;49.398;2023-08-20T12:39:03;3.15;118.99
67186;HTU21D;54116;53.518;49.398;2023-08-20T12:41:35;3.15;118.99
67186;HTU21D;54116;53.518;49.398;2023-08-20T12:44:22;3.19;118.99
67186;HTU21D;54116;53.518;49.398;2023-08-20T12:46:51;3.23;118.99
67186;HTU21D;54116;53.518;49.398;2023-08-20T12:49:22;3.38;118.99
67186;HTU21D;54116;53.518;49.398;2023-08-20T12:51:48;3.27;118.99
67186;HTU21D;54116;53.518;49.398;2023-08-20T12:54:14;3.16;118.99
67186;HTU21D;54116;53.518;49.398;2023-08-20T12:56:40;3.18;118.99
67186;HTU21D;54116;53.518;49.398;2023-08-20T12:59:07;3.18;118.99
67186;HTU21D;54116;53.518;49.398;2023-08-20T13:01:36;3.25;118.99
67186;HTU21D;54116;53.518;49.398;2023-08-20T13:04:03;3.18;118.99
67186;HTU21D;54116;53.518;49.398;2023-08-20T13:06:29;3.21;118.99
67186;HTU21D;54116;53.518;49.398;2023-08-20T13:08:56;3.18;118.99
67186;HTU21D;54116;53.518;49.398;2023-08-20T13:11:25;3.15;118.99
67186;HTU21D;54116;53.518;49.398;2023-08-20T13:13:51;3.29;118.99
67186;HTU21D;54116;53.518;49.398;2023-08-20T13:16:21;3.26;118.99
67186;HTU21D;54116;53.518;49.398;2023-08-20T13:18:47;3.21;118.99
67186;HTU21D;54116;53.518;49.398;2023-08-20T13:21:16;3.26;118.99
67186;HTU21D;54116;53.518;49.398;2023-08-20T13:23:46;3.26;118.99
67186;HTU21D;54116;53.518;49.398;2023-08-20T13:26:12;3.10;118.99
67186;HTU21D;54116;53.518;49.398;2023-08-20T13:28:48;3.21;118.99
67186;HTU21D;54116;53.518;49.398;2023-08-20T13:31:14;3.19;118.99
67186;HTU21D;54116;53.518;49.398;2023-08-20T13:33:40;3.17;118.99
67186;HTU21D;54116;53.518;49.398;2023-08-20T13:36:06;3.04;118.99
67186;HTU21D;54116;53.518;49.398;2023-08-20T13:38:35;3.00;118.99
67186;HTU21D;54116;53.518;49.398;2023-08-20T13:41:10;3.03;118.99
67186;HTU21D;54116;53.518;49.398;2023-08-20T13:43:39;3.11;118.99
67186;HTU21D;54116;53.518;49.398;2023-08-20T13:46:11;3.05;118.99
67186;HTU21D;54116;53.518;49.398;2023-08-20T13:48:37;3.23;118.99
67186;HTU21D;54116;53.518;49.398;2023-08-20T13:51:03;3.09;118.99
67186;HTU21D;54116;53.518;49.398;2023-08-20T13:53:29;3.20;118.99
67186;HTU21D;54116;53.518;49.398;2023-08-20T13:55:55;3.19;118.99
67186;HTU21D;54116;53.518;49.398;2023-08-20T13:58:22;2.96;118.99
67186;HTU21D;54116;53.518;49.398;2023-08-20T14:00:48;2.81;118.99
67186;HTU21D;54116;53.518;49.398;2023-08-20T14:03:15;2.74;118.99
67186;HTU21D;54116;53.518;49.398;2023-08-20T14:05:41;2.99;118.99
67186;HTU21D;54116;53.518;49.398;2023-08-20T14:08:07;2.86;118.99
67186;HTU21D;54116;53.518;49.398;2023-08-20T14:10:36;2.55;118.99
67186;HTU21D;54116;53.518;49.398;2023-08-20T14:13:02;2.49;118.99
67186;HTU21D;54116;53.518;49.398;2023-08-20T14:15:28;2.42;118.99
67186;HTU21D;54116;53.518;49.398;2023-08-20T14:17:55;2.40;118.99
67186;HTU21D;54116;53.518;49.398;2023-08-20T14:20:21;2.55;118.99
67186;HTU21D;54116;53.518;49.398;2023-08-20T14:22:47;2.65;118.99
67186;HTU21D;54116;53.518;49.398;2023-08-20T14:25:14;2.68;118.99
67186;HTU21D;54116;53.518;49.398;2023-08-20T14:27:58;2.73;118.99
67186;HTU21D;54116;53.518;49.398;2023-08-20T14:30:24;2.75;118.99
67186;HTU21D;54116;53.518;49.398;2023-08-20T14:32:51;2.70;118.99
67186;HTU21D;54116;53.518;49.398;2023-08-20T14:35:20;2.71;118.99
67186;HTU21D;54116;53.518;49.398;2023-08-20T14:37:46;2.54;118.99
67186;HTU21D;54116;53.518;49.398;2023-08-20T14:40:12;2.41;118.99
67186;HTU21D;54116;53.518;49.398;2023-08-20T14:42:38;2.41;118.99
67186;HTU21D;54116;53.518;49.398;2023-08-20T14:45:05;2.42;118.99
67186;HTU21D;54116;53.518;49.398;2023-08-20T14:47:32;2.39;118.99
67186;HTU21D;54116;53.518;49.398;2023-08-20T14:49:58;2.38;118.99
67186;HTU21D;54116;53.518;49.398;2023-08-20T14:52:24;2.38;118.99
67186;HTU21D;54116;53.518;49.398;2023-08-20T14:54:53;2.28;118.99
67186;HTU21D;54116;53.518;49.398;2023-08-20T14:57:19;2.22;118.99
67186;HTU21D;54116;53.518;49.398;2023-08-20T14:59:45;2.19;118.99
67186;HTU21D;54116;53.518;49.398;2023-08-20T15:02:11;2.19;118.99
67186;HTU21D;54116;53.518;49.398;2023-08-20T15:04:37;2.09;118.99
67186;HTU21D;54116;53.518;49.398;2023-08-20T15:07:03;2.19;118.99
67186;HTU21D;54116;53.518;49.398;2023-08-20T15:09:30;2.10;118.99
67186;HTU21D;54116;53.518;49.398;2023-08-20T15:11:57;1.90;118.99
67186;HTU21D;54116;53.518;49.398;2023-08-20T15:14:23;1.92;118.99
67186;HTU21D;54116;53.518;49.398;2023-08-20T15:16:50;1.85;118.99
67186;HTU21D;54116;53.518;49.398;2023-08-20T15:19:20;1.84;118.99